Time;durP1;ratioP1;P1;durP2;ratioP2;P2;SDS_P1;SDS_P2;PMS_P1;PMS_P2;Temp;Humidity;BMP_temperature;BMP_pressure;BME280_temperature;BME280_humidity;BME280_pressure;Samples;Min_cycle;Max_cycle;Signal;HPM_P1;HPM_P2
2023/04/11 00:01:52;;;;;;;38.33;23.30;;;8.70;1.00;;;;;;4918323;29;20204;-92
2023/04/11 00:04:19;;;;;;;36.57;23.40;;;8.70;1.00;;;;;;4899901;29;20211;-93
2023/04/11 00:06:46;;;;;;;38.20;23.97;;;8.70;1.00;;;;;;4899718;29;20206;-92
2023/04/11 00:09:15;;;;;;;39.40;24.00;;;8.70;1.00;;;;;;4899458;29;20233;-93
2023/04/11 00:11:42;;;;;;;36.67;22.70;;;8.70;1.00;;;;;;4907715;29;20276;-92
2023/04/11 00:14:09;;;;;;;36.03;22.13;;;8.70;1.00;;;;;;4918261;29;20210;-92
2023/04/11 00:16:36;;;;;;;33.73;21.40;;;8.70;1.00;;;;;;4912729;29;20210;-92
2023/04/11 00:19:03;;;;;;;37.07;22.63;;;8.80;1.00;;;;;;4899446;29;20210;-91
2023/04/11 00:21:30;;;;;;;34.60;22.03;;;8.80;1.00;;;;;;4898661;29;20214;-93
2023/04/11 00:23:57;;;;;;;36.87;22.70;;;8.80;1.00;;;;;;4909609;29;20211;-91
2023/04/11 00:26:25;;;;;;;36.43;23.87;;;8.80;1.00;;;;;;4917757;29;20209;-91
2023/04/11 00:28:52;;;;;;;34.57;22.77;;;8.80;1.00;;;;;;4918285;29;20324;-92
2023/04/11 00:31:18;;;;;;;34.73;21.83;;;8.80;1.00;;;;;;4911890;29;20200;-92
2023/04/11 00:33:45;;;;;;;34.73;22.23;;;8.90;1.00;;;;;;4907129;29;20210;-92
2023/04/11 00:36:12;;;;;;;35.80;22.23;;;8.80;1.00;;;;;;4902976;29;20208;-92
2023/04/11 00:38:39;;;;;;;36.73;22.63;;;8.80;1.00;;;;;;4903127;29;20670;-92
2023/04/11 00:41:06;;;;;;;39.67;23.50;;;8.80;1.00;;;;;;4899156;29;20221;-92
2023/04/11 00:43:34;;;;;;;34.03;21.93;;;8.80;1.00;;;;;;4917901;29;20206;-92
2023/04/11 00:46:01;;;;;;;34.77;22.40;;;8.80;1.00;;;;;;4917569;29;20208;-92
2023/04/11 00:48:28;;;;;;;37.27;22.37;;;8.80;1.00;;;;;;4904538;29;20208;-92
2023/04/11 00:50:55;;;;;;;32.23;20.83;;;8.80;1.00;;;;;;4907072;29;20208;-93
2023/04/11 00:53:22;;;;;;;35.80;22.57;;;8.80;1.00;;;;;;4918009;29;20205;-93
2023/04/11 00:55:50;;;;;;;38.27;22.60;;;8.80;1.00;;;;;;4918127;29;20654;-92
2023/04/11 00:58:17;;;;;;;36.47;22.30;;;8.80;1.00;;;;;;4917830;29;20223;-93
2023/04/11 01:00:48;;;;;;;38.93;22.10;;;8.80;1.00;;;;;;4918114;29;20209;-92
2023/04/11 01:03:15;;;;;;;34.43;21.67;;;8.70;1.00;;;;;;4917912;29;20541;-92
2023/04/11 01:05:42;;;;;;;38.73;22.50;;;8.70;1.00;;;;;;4917010;29;20205;-92
2023/04/11 01:08:09;;;;;;;36.90;22.77;;;8.70;1.00;;;;;;4917535;29;20253;-92
2023/04/11 01:10:36;;;;;;;36.37;22.27;;;8.70;1.00;;;;;;4909988;29;20649;-91
2023/04/11 01:13:03;;;;;;;34.47;22.63;;;8.70;1.00;;;;;;4899029;29;20288;-90
2023/04/11 01:15:30;;;;;;;37.00;22.40;;;8.70;1.00;;;;;;4912869;29;20212;-91
2023/04/11 01:18:00;;;;;;;33.67;21.80;;;8.70;1.00;;;;;;4917564;29;20312;-91
2023/04/11 01:20:30;;;;;;;34.07;21.47;;;8.70;1.00;;;;;;4917231;29;20687;-92
2023/04/11 01:22:58;;;;;;;35.07;22.73;;;8.70;1.00;;;;;;4916777;29;20209;-92
2023/04/11 01:25:26;;;;;;;34.93;22.27;;;8.80;1.00;;;;;;4904539;29;20581;-91
2023/04/11 01:27:55;;;;;;;33.40;21.80;;;8.80;1.00;;;;;;4916084;29;20291;-91
2023/04/11 01:30:21;;;;;;;34.63;22.33;;;8.70;1.00;;;;;;4917359;29;20208;-92
2023/04/11 01:32:49;;;;;;;35.67;21.80;;;8.70;1.00;;;;;;4918198;29;20204;-92
2023/04/11 01:35:17;;;;;;;36.00;22.57;;;8.70;1.00;;;;;;4920842;29;20636;-93
2023/04/11 01:37:44;;;;;;;33.40;21.43;;;8.70;1.00;;;;;;4920611;29;20220;-91
2023/04/11 01:40:14;;;;;;;36.27;22.60;;;8.70;11.40;;;;;;4920685;29;20210;-93
2023/04/11 01:42:43;;;;;;;35.07;21.70;;;8.70;9.30;;;;;;4920654;29;20205;-91
2023/04/11 01:45:12;;;;;;;33.73;21.27;;;8.70;1.00;;;;;;4920583;29;20285;-92
2023/04/11 01:47:39;;;;;;;33.47;22.30;;;8.70;3.80;;;;;;4920484;29;20664;-92
2023/04/11 01:50:07;;;;;;;34.50;21.43;;;8.70;1.00;;;;;;4904554;29;20566;-92
2023/04/11 01:52:34;;;;;;;35.80;21.67;;;8.70;1.00;;;;;;4920611;29;20207;-92
2023/04/11 01:55:01;;;;;;;33.97;22.10;;;8.70;52.30;;;;;;4920398;29;20206;-93
2023/04/11 01:57:27;;;;;;;36.67;22.03;;;8.70;55.10;;;;;;4909928;29;20578;-92
2023/04/11 01:59:55;;;;;;;35.17;22.47;;;8.70;74.30;;;;;;4911279;29;20209;-93
2023/04/11 02:02:22;;;;;;;31.70;21.77;;;8.70;68.00;;;;;;4920646;29;20215;-92
2023/04/11 02:04:49;;;;;;;35.87;23.07;;;8.70;44.20;;;;;;4905076;29;20204;-92
2023/04/11 02:07:16;;;;;;;33.53;21.63;;;8.70;47.20;;;;;;4920101;29;20205;-92
2023/04/11 02:09:43;;;;;;;35.30;22.47;;;8.80;19.00;;;;;;4906078;29;20204;-91
2023/04/11 02:12:09;;;;;;;34.57;22.00;;;8.80;13.90;;;;;;4901179;29;20214;-91
2023/04/11 02:14:41;;;;;;;34.30;20.80;;;8.80;16.60;;;;;;4908365;29;20222;-93
2023/04/11 02:17:10;;;;;;;34.70;21.83;;;8.80;43.80;;;;;;4904544;29;20611;-92
2023/04/11 02:19:37;;;;;;;36.33;22.47;;;8.80;1.00;;;;;;4920308;29;20684;-92
2023/04/11 02:22:04;;;;;;;36.00;21.90;;;8.80;1.00;;;;;;4919407;29;20207;-92
2023/04/11 02:24:30;;;;;;;33.43;21.37;;;8.80;1.00;;;;;;4909473;29;20268;-92
2023/04/11 02:26:57;;;;;;;35.20;22.33;;;8.90;1.00;;;;;;4901451;29;20208;-92
2023/04/11 02:29:24;;;;;;;33.07;21.17;;;8.90;1.00;;;;;;4906301;29;20193;-93
2023/04/11 02:31:51;;;;;;;35.13;21.63;;;8.90;1.00;;;;;;4920026;29;20195;-92
2023/04/11 02:34:19;;;;;;;37.97;23.40;;;8.90;1.00;;;;;;4903349;29;20568;-92
2023/04/11 02:36:46;;;;;;;34.17;21.67;;;8.90;1.00;;;;;;4900681;29;20408;-92
2023/04/11 02:39:13;;;;;;;34.97;21.63;;;8.90;1.00;;;;;;4909542;29;20230;-92
2023/04/11 02:41:40;;;;;;;34.40;22.57;;;8.90;1.00;;;;;;4920088;29;20258;-93
2023/04/11 02:44:07;;;;;;;34.63;21.50;;;8.90;1.00;;;;;;4900283;29;20212;-92
2023/04/11 02:46:34;;;;;;;36.90;21.57;;;8.90;1.00;;;;;;4918174;29;20199;-92
2023/04/11 02:49:01;;;;;;;38.40;22.73;;;8.90;1.00;;;;;;4911026;29;20200;-94
2023/04/11 02:51:29;;;;;;;36.30;22.33;;;8.90;1.00;;;;;;4918167;29;20203;-92
2023/04/11 02:53:56;;;;;;;42.23;23.70;;;8.90;1.00;;;;;;4919737;29;20229;-93
2023/04/11 02:56:23;;;;;;;40.33;23.43;;;8.90;1.00;;;;;;4917818;29;20204;-93
2023/04/11 02:58:51;;;;;;;36.33;22.33;;;8.90;9.20;;;;;;4900549;29;20229;-91
2023/04/11 03:01:20;;;;;;;38.10;22.63;;;8.90;1.00;;;;;;4918895;29;20196;-92
2023/04/11 03:03:47;;;;;;;38.33;23.27;;;8.90;1.00;;;;;;4919563;29;20208;-92
2023/04/11 03:06:15;;;;;;;39.10;23.07;;;8.90;3.00;;;;;;4919265;29;20204;-92
2023/04/11 03:08:43;;;;;;;36.53;22.50;;;9.00;7.70;;;;;;4913187;29;20224;-91
2023/04/11 03:11:09;;;;;;;39.67;23.13;;;9.00;44.00;;;;;;4908202;29;20280;-93
2023/04/11 03:13:38;;;;;;;38.73;23.27;;;9.00;36.00;;;;;;4900515;29;20215;-92
2023/04/11 03:16:06;;;;;;;37.23;23.20;;;9.00;16.30;;;;;;4918291;29;20225;-92
2023/04/11 03:18:33;;;;;;;37.63;22.63;;;9.00;13.30;;;;;;4915766;29;20216;-91
2023/04/11 03:21:00;;;;;;;42.17;23.83;;;9.00;11.30;;;;;;4919584;29;20203;-92
2023/04/11 03:23:28;;;;;;;36.83;21.73;;;9.00;11.00;;;;;;4918951;29;20691;-92
2023/04/11 03:25:57;;;;;;;35.70;22.80;;;9.00;31.30;;;;;;4901643;29;20234;-91
2023/04/11 03:28:24;;;;;;;36.97;22.70;;;9.00;60.00;;;;;;4900048;29;20667;-91
2023/04/11 03:30:50;;;;;;;34.47;22.93;;;9.00;39.00;;;;;;4916358;29;20209;-93
2023/04/11 03:33:17;;;;;;;37.93;22.07;;;8.90;50.60;;;;;;4918733;29;20204;-92
2023/04/11 03:35:44;;;;;;;37.30;23.27;;;8.90;92.20;;;;;;4918438;29;20680;-92
2023/04/11 03:38:11;;;;;;;36.40;22.47;;;8.90;99.90;;;;;;4904845;29;20229;-92
2023/04/11 03:40:38;;;;;;;37.77;22.87;;;8.90;99.90;;;;;;4909783;29;20206;-93
2023/04/11 03:43:06;;;;;;;37.93;22.30;;;8.90;99.90;;;;;;4918924;29;20671;-93
2023/04/11 03:45:33;;;;;;;38.47;24.20;;;8.80;99.90;;;;;;4918434;29;20289;-91
2023/04/11 03:48:00;;;;;;;39.73;23.57;;;8.80;99.90;;;;;;4909976;29;20208;-91
2023/04/11 03:50:27;;;;;;;35.20;21.93;;;8.90;99.90;;;;;;4906837;29;20572;-92
2023/04/11 03:52:54;;;;;;;38.70;22.97;;;8.80;99.90;;;;;;4915247;29;20202;-91
2023/04/11 03:55:21;;;;;;;37.83;22.80;;;8.80;99.90;;;;;;4918734;29;20198;-92
2023/04/11 03:57:48;;;;;;;36.53;22.93;;;8.80;99.90;;;;;;4918193;29;20205;-91
2023/04/11 04:00:16;;;;;;;40.63;23.50;;;8.80;99.90;;;;;;4917020;29;20200;-92
2023/04/11 04:02:43;;;;;;;36.73;23.17;;;8.90;99.90;;;;;;4901487;29;20286;-91
2023/04/11 04:05:10;;;;;;;35.73;22.23;;;8.80;99.90;;;;;;4900871;29;20205;-90
2023/04/11 04:07:37;;;;;;;36.17;22.83;;;8.90;99.90;;;;;;4905268;29;20249;-90
2023/04/11 04:10:05;;;;;;;35.20;22.13;;;8.80;99.90;;;;;;4921113;29;20200;-91
2023/04/11 04:12:32;;;;;;;38.63;23.33;;;8.80;99.90;;;;;;4914500;29;20203;-91
2023/04/11 04:14:58;;;;;;;39.43;22.80;;;8.80;99.90;;;;;;4905824;29;20643;-91
2023/04/11 04:17:27;;;;;;;35.53;22.77;;;8.90;99.90;;;;;;4905869;29;20232;-92
2023/04/11 04:19:54;;;;;;;36.83;22.23;;;8.90;99.90;;;;;;4910319;29;20220;-91
2023/04/11 04:22:22;;;;;;;38.43;22.70;;;8.90;99.90;;;;;;4920961;29;20200;-92
2023/04/11 04:24:50;;;;;;;38.63;22.50;;;8.90;99.90;;;;;;4908794;29;20738;-92
2023/04/11 04:27:17;;;;;;;36.60;22.80;;;8.80;99.90;;;;;;4911026;29;20203;-91
2023/04/11 04:29:48;;;;;;;36.03;23.23;;;8.80;99.90;;;;;;4919411;29;20219;-90
2023/04/11 04:32:21;;;;;;;37.33;23.13;;;8.90;99.90;;;;;;4918129;29;20558;-92
2023/04/11 04:34:53;;;;;;;39.80;23.37;;;8.90;99.90;;;;;;4920843;29;20669;-93
2023/04/11 04:37:22;;;;;;;37.13;22.53;;;8.90;99.90;;;;;;4921313;29;20196;-92
2023/04/11 04:39:52;;;;;;;37.83;22.83;;;8.90;99.90;;;;;;4912755;29;20229;-91
2023/04/11 04:42:20;;;;;;;36.70;22.00;;;8.90;99.90;;;;;;4910109;29;20232;-92
2023/04/11 04:44:47;;;;;;;38.03;22.67;;;8.90;99.90;;;;;;4914324;29;20223;-92
2023/04/11 04:47:14;;;;;;;34.13;22.10;;;8.90;92.30;;;;;;4918039;29;20204;-92
2023/04/11 04:49:41;;;;;;;36.57;22.67;;;9.00;67.20;;;;;;4902736;29;20202;-92
2023/04/11 04:52:09;;;;;;;38.73;23.80;;;9.00;39.60;;;;;;4917903;29;20447;-93
2023/04/11 04:54:36;;;;;;;39.60;22.60;;;9.00;26.50;;;;;;4913670;29;20211;-93
2023/04/11 04:57:02;;;;;;;38.80;22.70;;;9.00;1.00;;;;;;4921600;29;20256;-91
2023/04/11 04:59:30;;;;;;;35.43;22.17;;;9.00;1.00;;;;;;4914340;29;20220;-92
2023/04/11 05:01:57;;;;;;;38.73;22.53;;;9.10;1.00;;;;;;4917795;29;20266;-94
2023/04/11 05:04:24;;;;;;;34.87;21.67;;;9.10;1.00;;;;;;4918650;29;20200;-95
2023/04/11 05:06:51;;;;;;;33.97;21.53;;;9.20;1.00;;;;;;4921342;29;20299;-93
2023/04/11 05:09:19;;;;;;;32.03;20.73;;;9.20;1.00;;;;;;4917577;29;20600;-92
2023/04/11 05:11:45;;;;;;;34.47;21.77;;;9.20;1.00;;;;;;4921253;29;20211;-92
2023/04/11 05:14:12;;;;;;;35.87;22.03;;;9.20;1.00;;;;;;4920971;29;20209;-91
2023/04/11 05:16:40;;;;;;;32.73;21.03;;;9.30;1.00;;;;;;4921677;29;20208;-93
2023/04/11 05:19:07;;;;;;;31.17;20.30;;;9.30;1.00;;;;;;4921212;29;20222;-93
2023/04/11 05:21:34;;;;;;;31.63;20.20;;;9.30;1.00;;;;;;4921160;29;20205;-94
2023/04/11 05:24:01;;;;;;;31.97;20.87;;;9.30;1.00;;;;;;4921685;29;20207;-91
2023/04/11 05:26:30;;;;;;;32.60;20.53;;;9.40;1.00;;;;;;4916437;29;20200;-93
2023/04/11 05:28:57;;;;;;;34.93;20.37;;;9.40;1.00;;;;;;4902333;29;20236;-93
2023/04/11 05:31:24;;;;;;;33.03;20.13;;;9.40;1.00;;;;;;4902427;29;20220;-93
2023/04/11 05:33:51;;;;;;;32.27;20.13;;;9.40;99.90;;;;;;4902622;29;20264;-93
2023/04/11 05:36:18;;;;;;;32.87;20.87;;;9.40;99.90;;;;;;4902336;29;20205;-92
2023/04/11 05:38:45;;;;;;;31.87;19.50;;;9.40;99.90;;;;;;4909449;29;20221;-94
2023/04/11 05:41:12;;;;;;;31.07;20.47;;;9.50;99.90;;;;;;4902439;29;20208;-93
2023/04/11 05:43:40;;;;;;;32.03;20.70;;;9.50;99.90;;;;;;4902199;29;20215;-94
2023/04/11 05:46:07;;;;;;;30.40;19.47;;;9.50;99.90;;;;;;4919776;29;20203;-92
2023/04/11 05:48:34;;;;;;;31.70;20.17;;;9.50;99.90;;;;;;4920922;29;20239;-93
2023/04/11 05:51:01;;;;;;;33.30;21.40;;;9.60;99.90;;;;;;4911854;29;20212;-92
2023/04/11 05:53:28;;;;;;;37.07;20.80;;;9.60;99.90;;;;;;4905774;29;20194;-93
2023/04/11 05:55:55;;;;;;;33.73;21.80;;;9.60;99.90;;;;;;4920781;29;20198;-92
2023/04/11 05:58:23;;;;;;;32.70;21.03;;;9.70;99.90;;;;;;4920865;29;20205;-93
2023/04/11 06:00:51;;;;;;;35.10;22.30;;;9.70;55.30;;;;;;4921145;29;20212;-94
2023/04/11 06:03:18;;;;;;;43.60;26.77;;;9.80;6.80;;;;;;4920322;29;20265;-92
2023/04/11 06:05:45;;;;;;;40.50;25.53;;;9.90;1.00;;;;;;4920553;29;20204;-93
2023/04/11 06:08:12;;;;;;;39.10;23.30;;;10.00;1.00;;;;;;4920527;29;20236;-93
2023/04/11 06:10:38;;;;;;;38.70;23.50;;;10.00;1.00;;;;;;4920884;29;20208;-92
2023/04/11 06:13:05;;;;;;;35.87;22.63;;;10.10;1.00;;;;;;4901791;29;20202;-93
2023/04/11 06:15:32;;;;;;;33.70;22.23;;;10.10;1.00;;;;;;4914094;29;20206;-93
2023/04/11 06:18:00;;;;;;;36.70;23.33;;;10.20;1.00;;;;;;4920669;29;20576;-93
2023/04/11 06:20:28;;;;;;;31.60;20.00;;;10.30;1.00;;;;;;4919293;29;20731;-92
2023/04/11 06:22:55;;;;;;;28.20;19.10;;;10.30;1.00;;;;;;4920140;29;20208;-93
2023/04/11 06:25:23;;;;;;;26.93;18.37;;;10.40;99.90;;;;;;4920605;29;20203;-93
2023/04/11 06:27:50;;;;;;;27.80;18.30;;;10.50;99.90;;;;;;4920356;29;20242;-93
2023/04/11 06:30:17;;;;;;;29.50;19.43;;;10.60;99.90;;;;;;4920206;29;20199;-93
2023/04/11 06:32:44;;;;;;;28.83;19.20;;;10.60;99.90;;;;;;4920654;29;20285;-93
2023/04/11 06:35:12;;;;;;;29.07;19.57;;;10.60;99.90;;;;;;4920175;29;20211;-93
2023/04/11 06:37:41;;;;;;;30.70;19.50;;;10.70;99.90;;;;;;4920206;29;20209;-93
2023/04/11 06:40:09;;;;;;;29.40;18.87;;;10.80;28.00;;;;;;4919862;29;20223;-92
2023/04/11 06:42:36;;;;;;;36.10;20.77;;;10.80;1.00;;;;;;4920224;29;20230;-92
2023/04/11 06:45:03;;;;;;;31.13;19.53;;;10.80;1.00;;;;;;4920099;29;20214;-93
2023/04/11 06:47:30;;;;;;;29.93;19.57;;;10.90;1.00;;;;;;4919934;29;20311;-92
2023/04/11 06:49:58;;;;;;;30.23;18.90;;;10.90;1.00;;;;;;4919749;29;20227;-92
2023/04/11 06:52:26;;;;;;;28.63;19.70;;;11.00;1.00;;;;;;4900943;29;20662;-93
2023/04/11 06:54:53;;;;;;;27.10;18.93;;;11.00;1.00;;;;;;4916437;29;20203;-92
2023/04/11 06:57:19;;;;;;;26.93;18.07;;;11.10;1.00;;;;;;4919710;29;20207;-92
2023/04/11 06:59:46;;;;;;;28.37;18.97;;;11.10;1.00;;;;;;4919811;29;20234;-93
2023/04/11 07:02:14;;;;;;;28.93;18.03;;;11.20;1.00;;;;;;4903495;29;20196;-93
2023/04/11 07:04:41;;;;;;;30.73;19.13;;;11.20;1.00;;;;;;4919534;29;20200;-93
2023/04/11 07:07:08;;;;;;;33.80;19.80;;;11.30;1.00;;;;;;4919790;29;20201;-93
2023/04/11 07:09:36;;;;;;;29.37;19.80;;;11.40;1.00;;;;;;4907328;29;20190;-93
2023/04/11 07:12:04;;;;;;;29.13;19.70;;;11.50;1.00;;;;;;4910105;29;20202;-93
2023/04/11 07:14:31;;;;;;;30.23;19.30;;;11.60;1.00;;;;;;4915668;29;20298;-93
2023/04/11 07:16:58;;;;;;;27.43;17.97;;;11.70;99.90;;;;;;4901912;29;20214;-92
2023/04/11 07:19:25;;;;;;;30.57;18.13;;;11.80;99.90;;;;;;4919488;29;20238;-93
2023/04/11 07:21:52;;;;;;;28.27;18.47;;;11.80;99.90;;;;;;4919057;29;20212;-93
2023/04/11 07:24:19;;;;;;;27.97;19.23;;;11.90;99.90;;;;;;4919033;29;20202;-92
2023/04/11 07:26:49;;;;;;;28.20;19.10;;;12.00;99.90;;;;;;4919041;29;20672;-92
2023/04/11 07:29:16;;;;;;;26.17;18.90;;;12.10;99.90;;;;;;4919488;29;20202;-93
2023/04/11 07:31:43;;;;;;;29.03;18.80;;;12.20;90.10;;;;;;4900119;29;20212;-93
2023/04/11 07:34:10;;;;;;;29.80;19.00;;;12.30;1.00;;;;;;4900051;29;20213;-93
2023/04/11 07:36:37;;;;;;;27.53;18.73;;;12.50;1.00;;;;;;4900448;29;20198;-93
2023/04/11 07:39:07;;;;;;;29.83;20.70;;;12.60;1.00;;;;;;4910411;29;20202;-92
2023/04/11 07:41:35;;;;;;;41.33;20.57;;;12.70;1.00;;;;;;4919008;29;20210;-94
2023/04/11 07:44:03;;;;;;;34.10;19.13;;;12.90;1.00;;;;;;4918934;29;20202;-93
2023/04/11 07:46:30;;;;;;;30.17;19.93;;;13.10;1.00;;;;;;4918812;29;20210;-93
2023/04/11 07:48:57;;;;;;;29.40;20.53;;;13.30;1.00;;;;;;4919097;29;20204;-93
2023/04/11 07:51:25;;;;;;;29.83;19.73;;;13.40;99.90;;;;;;4918758;29;20568;-93
2023/04/11 07:53:52;;;;;;;31.07;20.47;;;13.50;99.90;;;;;;4917845;29;20201;-93
2023/04/11 07:56:18;;;;;;;36.33;18.50;;;13.50;99.90;;;;;;4904139;29;20735;-93
2023/04/11 07:58:45;;;;;;;35.77;19.17;;;13.50;99.90;;;;;;4918680;29;20195;-93
2023/04/11 08:01:22;;;;;;;28.47;18.53;;;13.50;99.90;;;;;;4899953;29;20320;-93
2023/04/11 08:03:49;;;;;;;29.77;17.77;;;13.50;99.90;;;;;;4899728;29;20211;-92
2023/04/11 08:06:15;;;;;;;27.50;19.10;;;13.50;99.90;;;;;;4911343;29;20259;-93
2023/04/11 08:08:42;;;;;;;28.10;20.00;;;13.40;99.90;;;;;;4918064;29;20239;-93
2023/04/11 08:11:09;;;;;;;32.97;20.30;;;13.20;99.90;;;;;;4918480;29;20695;-94
2023/04/11 08:13:36;;;;;;;28.90;19.53;;;13.10;99.90;;;;;;4918770;29;20204;-94
2023/04/11 08:16:05;;;;;;;26.17;18.70;;;12.90;99.90;;;;;;4918645;29;20209;-93
2023/04/11 08:18:34;;;;;;;26.00;17.53;;;12.80;99.90;;;;;;4918306;29;20627;-93
2023/04/11 08:21:00;;;;;;;26.90;18.50;;;12.80;99.90;;;;;;4918183;29;20230;-94
2023/04/11 08:23:28;;;;;;;27.13;18.40;;;12.80;1.00;;;;;;4918472;29;20207;-95
2023/04/11 08:25:55;;;;;;;26.50;18.27;;;12.80;1.00;;;;;;4918085;29;20191;-93
2023/04/11 08:28:22;;;;;;;28.23;18.37;;;12.80;1.00;;;;;;4918476;29;20209;-93
2023/04/11 08:30:51;;;;;;;28.33;19.10;;;12.60;1.00;;;;;;4918816;29;20581;-93
2023/04/11 08:33:19;;;;;;;28.70;19.13;;;12.50;1.00;;;;;;4918198;29;20212;-93
2023/04/11 08:35:47;;;;;;;29.10;19.63;;;12.30;1.00;;;;;;4918156;29;20202;-93
2023/04/11 08:38:14;;;;;;;27.17;17.83;;;12.30;1.00;;;;;;4899231;29;20225;-93
2023/04/11 08:40:40;;;;;;;25.93;17.83;;;12.30;1.00;;;;;;4899221;29;20224;-93
2023/04/11 08:43:11;;;;;;;25.37;18.00;;;12.30;1.00;;;;;;4911070;29;20202;-94
2023/04/11 08:45:38;;;;;;;26.80;18.40;;;12.40;1.00;;;;;;4922018;29;20289;-93
2023/04/11 08:48:05;;;;;;;25.30;17.73;;;12.40;1.00;;;;;;4922020;29;20209;-93
2023/04/11 08:50:32;;;;;;;23.83;17.10;;;12.50;1.00;;;;;;4922180;29;20206;-93
2023/04/11 08:53:02;;;;;;;27.07;18.80;;;12.50;1.00;;;;;;4921851;29;20200;-93
2023/04/11 08:55:29;;;;;;;27.67;17.73;;;12.50;1.00;;;;;;4922085;29;20202;-93
2023/04/11 08:57:58;;;;;;;24.03;16.57;;;12.50;1.00;;;;;;4921780;29;20211;-93
2023/04/11 09:00:27;;;;;;;27.47;17.40;;;12.40;1.00;;;;;;4922063;29;20431;-94
2023/04/11 09:02:56;;;;;;;22.90;16.60;;;12.30;1.00;;;;;;4921399;29;20273;-93
2023/04/11 09:05:27;;;;;;;23.13;15.97;;;12.20;97.00;;;;;;4921360;29;20206;-94
2023/04/11 09:07:54;;;;;;;23.93;16.80;;;12.20;92.50;;;;;;4921262;29;20239;-94
2023/04/11 09:10:24;;;;;;;23.67;16.90;;;12.20;45.80;;;;;;4922080;29;20203;-93
2023/04/11 09:12:51;;;;;;;25.50;18.00;;;12.10;99.90;;;;;;4921561;29;20205;-94
2023/04/11 09:15:19;;;;;;;27.77;16.37;;;12.00;99.90;;;;;;4921380;29;20207;-93
2023/04/11 09:17:46;;;;;;;26.97;18.23;;;12.00;99.90;;;;;;4921824;29;20281;-93
2023/04/11 09:20:17;;;;;;;22.50;15.70;;;12.10;99.90;;;;;;4921401;29;20223;-94
2023/04/11 09:22:44;;;;;;;19.43;13.77;;;12.30;1.00;;;;;;4902209;29;20694;-93
2023/04/11 09:25:11;;;;;;;17.63;13.17;;;12.50;99.90;;;;;;4902621;29;20208;-93
2023/04/11 09:27:39;;;;;;;20.07;13.77;;;12.70;99.90;;;;;;4912812;29;20209;-93
2023/04/11 09:30:21;;;;;;;16.73;12.70;;;12.90;99.90;;;;;;4919254;29;20199;-93
2023/04/11 09:32:48;;;;;;;21.30;14.40;;;12.90;99.90;;;;;;4902569;29;20206;-93
2023/04/11 09:35:17;;;;;;;19.57;14.17;;;13.00;93.30;;;;;;4902553;29;20260;-93
2023/04/11 09:37:46;;;;;;;19.40;14.13;;;12.90;37.60;;;;;;4902479;29;20568;-94
2023/04/11 09:40:13;;;;;;;19.17;13.63;;;12.80;1.00;;;;;;4902523;29;20216;-94
2023/04/11 09:42:42;;;;;;;18.90;13.50;;;12.60;1.00;;;;;;4902459;29;20206;-93
2023/04/11 09:45:20;;;;;;;20.80;13.67;;;12.40;99.90;;;;;;4901991;29;20210;-94
2023/04/11 09:47:47;;;;;;;19.47;14.17;;;12.30;99.90;;;;;;4902547;29;20283;-94
2023/04/11 09:50:14;;;;;;;20.83;14.93;;;12.20;99.90;;;;;;4904996;29;20747;-93
2023/04/11 09:52:42;;;;;;;21.30;14.17;;;12.10;99.90;;;;;;4920681;29;20214;-93
2023/04/11 09:55:11;;;;;;;19.10;13.80;;;12.10;1.00;;;;;;4920555;29;20723;-93
2023/04/11 09:57:44;;;;;;;19.33;13.53;;;12.10;1.00;;;;;;4920562;29;20222;-93
2023/04/11 10:00:15;;;;;;;19.20;13.33;;;12.10;1.00;;;;;;4920974;29;20207;-93
2023/04/11 10:02:43;;;;;;;17.67;12.77;;;12.10;1.00;;;;;;4921457;29;20630;-93
2023/04/11 10:05:12;;;;;;;18.13;12.70;;;12.10;1.00;;;;;;4920768;29;20630;-93
2023/04/11 10:07:46;;;;;;;19.17;13.50;;;11.90;1.00;;;;;;4920554;29;20240;-93
2023/04/11 10:10:18;;;;;;;21.00;14.73;;;11.70;1.00;;;;;;4920911;29;20196;-93
2023/04/11 10:12:47;;;;;;;19.17;13.50;;;11.50;1.00;;;;;;4920769;29;20296;-93
2023/04/11 10:15:14;;;;;;;19.97;13.27;;;11.30;1.00;;;;;;4920658;29;20297;-94
2023/04/11 10:17:42;;;;;;;18.77;12.20;;;11.20;1.00;;;;;;4920395;29;20657;-93
2023/04/11 10:20:49;;;;;;;47.00;30.50;;;11.10;90.50;;;;;;4919969;29;20222;-94
2023/04/11 10:23:16;;;;;;;93.17;58.50;;;11.00;99.90;;;;;;4920492;29;20208;-94
2023/04/11 10:25:54;;;;;;;47.27;31.83;;;10.90;99.90;;;;;;4920725;29;20205;-93
2023/04/11 10:28:37;;;;;;;24.77;17.87;;;10.90;99.90;;;;;;4920341;29;20213;-93
2023/04/11 10:31:06;;;;;;;20.90;13.83;;;10.90;99.90;;;;;;4920297;29;20239;-93
2023/04/11 10:33:34;;;;;;;17.57;12.40;;;11.00;1.00;;;;;;4920062;29;20700;-93
2023/04/11 10:36:04;;;;;;;17.87;11.87;;;11.00;1.00;;;;;;4920600;29;20206;-93
2023/04/11 10:38:50;;;;;;;17.50;11.13;;;11.00;1.00;;;;;;4920086;29;20615;-93
2023/04/11 10:41:19;;;;;;;14.90;10.90;;;11.10;1.00;;;;;;4920216;29;20227;-92
2023/04/11 10:43:48;;;;;;;21.67;15.67;;;11.10;1.00;;;;;;4905246;29;20200;-92
2023/04/11 10:46:20;;;;;;;16.77;12.20;;;11.20;1.00;;;;;;4919279;29;20548;-93
2023/04/11 10:48:57;;;;;;;16.37;12.43;;;11.30;1.00;;;;;;4919983;29;20213;-93
2023/04/11 10:51:25;;;;;;;14.13;10.13;;;11.40;1.00;;;;;;4919609;29;20205;-93
2023/04/11 10:53:52;;;;;;;14.83;10.60;;;11.50;99.90;;;;;;4919821;29;20241;-93
2023/04/11 10:56:52;;;;;;;13.00;8.93;;;11.60;99.90;;;;;;4919892;29;20200;-93
2023/04/11 10:59:52;;;;;;;13.87;9.50;;;11.70;99.90;;;;;;4904589;29;20300;-93
2023/04/11 11:02:21;;;;;;;15.17;10.17;;;11.70;99.90;;;;;;4919747;29;20203;-93
2023/04/11 11:04:49;;;;;;;14.00;10.23;;;11.80;99.90;;;;;;4919411;29;20194;-93
2023/04/11 11:07:16;;;;;;;25.50;21.33;;;11.90;99.90;;;;;;4900353;29;20196;-93
2023/04/11 11:09:48;;;;;;;15.80;12.50;;;12.00;99.90;;;;;;4915521;29;20237;-92
2023/04/11 11:12:16;;;;;;;16.97;12.33;;;12.00;99.90;;;;;;4919774;29;20207;-92
2023/04/11 11:14:44;;;;;;;12.80;9.87;;;11.90;99.90;;;;;;4919332;29;20668;-92
2023/04/11 11:17:12;;;;;;;17.33;11.10;;;11.90;99.90;;;;;;4918977;29;20217;-94
2023/04/11 11:19:44;;;;;;;15.87;10.83;;;11.90;99.90;;;;;;4919911;29;20206;-93
2023/04/11 11:22:14;;;;;;;16.07;10.83;;;11.80;99.90;;;;;;4904980;29;20691;-93
2023/04/11 11:24:41;;;;;;;16.57;11.33;;;11.70;99.90;;;;;;4906696;29;20207;-93
2023/04/11 11:27:18;;;;;;;18.67;12.27;;;11.60;99.90;;;;;;4915110;29;20195;-93
2023/04/11 11:29:45;;;;;;;25.70;18.13;;;11.60;99.90;;;;;;4919405;29;20209;-93
2023/04/11 11:32:21;;;;;;;15.03;11.27;;;11.50;99.90;;;;;;4919270;29;20200;-93
2023/04/11 11:34:51;;;;;;;16.00;11.13;;;11.40;99.90;;;;;;4919312;29;20193;-94
2023/04/11 11:37:18;;;;;;;17.63;11.50;;;11.50;99.90;;;;;;4918054;29;20644;-92
2023/04/11 11:39:45;;;;;;;19.47;12.97;;;11.40;99.90;;;;;;4919023;29;20204;-92
2023/04/11 11:42:12;;;;;;;24.97;15.57;;;11.40;1.00;;;;;;4918867;29;20681;-93
2023/04/11 11:44:40;;;;;;;21.23;14.03;;;11.40;1.00;;;;;;4919019;29;20208;-93
2023/04/11 11:47:08;;;;;;;31.33;22.37;;;11.50;1.00;;;;;;4918925;29;20220;-92
2023/04/11 11:49:46;;;;;;;30.30;19.83;;;11.50;1.00;;;;;;4905317;29;20224;-94
2023/04/11 11:52:31;;;;;;;30.07;18.70;;;11.50;1.00;;;;;;4918212;29;20581;-93
2023/04/11 11:54:58;;;;;;;19.50;13.73;;;11.50;1.00;;;;;;4918673;29;20265;-92
2023/04/11 11:57:26;;;;;;;12.63;8.83;;;11.60;1.00;;;;;;4918690;29;20204;-92
2023/04/11 11:59:53;;;;;;;12.30;8.90;;;11.60;1.00;;;;;;4918994;29;20198;-92
2023/04/11 12:02:21;;;;;;;12.03;8.50;;;11.60;1.00;;;;;;4918569;29;20677;-93
2023/04/11 12:04:48;;;;;;;12.73;9.33;;;11.70;1.00;;;;;;4918735;29;20201;-93
2023/04/11 12:07:21;;;;;;;14.03;9.20;;;11.80;1.00;;;;;;4918161;29;20201;-93
2023/04/11 12:09:48;;;;;;;11.50;8.80;;;11.80;1.00;;;;;;4918280;29;20261;-93
2023/04/11 12:12:15;;;;;;;11.27;7.40;;;12.00;1.00;;;;;;4918820;29;20203;-92
2023/04/11 12:14:52;;;;;;;10.50;7.63;;;12.10;1.00;;;;;;4918565;29;20212;-93
2023/04/11 12:17:19;;;;;;;22.73;15.77;;;12.20;1.00;;;;;;4917479;29;20576;-93
2023/04/11 12:19:46;;;;;;;31.07;21.63;;;12.40;99.90;;;;;;4918707;29;20202;-92
2023/04/11 12:22:12;;;;;;;26.27;20.63;;;12.40;99.90;;;;;;4918589;29;20218;-92
2023/04/11 12:24:41;;;;;;;16.13;10.60;;;12.50;99.90;;;;;;4918397;29;20241;-92
2023/04/11 12:27:07;;;;;;;21.10;15.63;;;12.60;1.00;;;;;;4912365;29;20202;-93
2023/04/11 12:29:34;;;;;;;18.27;13.47;;;12.70;1.00;;;;;;4903913;29;20198;-93
2023/04/11 12:32:01;;;;;;;10.60;7.90;;;12.70;1.00;;;;;;4918498;29;20554;-93
2023/04/11 12:34:28;;;;;;;9.67;7.00;;;12.70;1.00;;;;;;4918627;29;20202;-93
2023/04/11 12:36:57;;;;;;;9.27;5.77;;;12.80;1.00;;;;;;4906128;29;20286;-92
2023/04/11 12:39:24;;;;;;;7.37;5.30;;;12.80;1.00;;;;;;4911224;29;20670;-92
2023/04/11 12:41:52;;;;;;;8.27;6.00;;;12.80;1.00;;;;;;4918252;29;20232;-93
2023/04/11 12:44:19;;;;;;;9.87;7.70;;;13.00;1.00;;;;;;4918264;29;20665;-94